Marschenland — ONES — position and weather

sailwx.info

Track history (hours):
 
Tides and Currents Weather Stations Pressure Air Temp Water Temp Dewpoint Dewpoint Depression Visibility Wind Speed Wind Dir Waves Ship Positions

Marschenland

Last reported at 2017-Dec-18 12:30 UTC. Time now 2017-Dec-18 12:51 UTC.
Position N 51°27' E 003°59'.

Length 75 m; draft 3.4 m.

Type: Cargo ship. MMSI: 205489000.

Date/timePositionNaut miles runAvg speedWind from/ knotsBaromVisibWave heightAir tempDewpointWater temp
2017-Dec-18 12:30N 51°27' E 003°59'5 9.2
2017-Dec-18 12:00N 51°23' E 003°54'5 9.7
2017-Dec-18 11:31N 51°23' E 003°46'611.2
2017-Dec-18 11:00N 51°26' E 003°39'710.1
2017-Dec-18 10:21N 51°29' E 003°29'511.2
2017-Dec-18 09:56N 51°33' E 003°25'510.9
2017-Dec-18 09:30N 51°38' E 003°22'510.8
2017-Dec-18 09:00N 51°42' E 003°18'165 8.7
2017-Dec-17 14:05N 53°35' W 000°01'1 8.2
2017-Dec-17 14:00N 53°35' W 000°02'4 8.5
2017-Dec-17 13:30N 53°37' W 000°08'2 3.5
2017-Dec-17 12:57N 53°38' W 000°11'0 0.2
2017-Dec-17 12:29N 53°38' W 000°12'0 0.7
2017-Dec-17 11:59N 53°38' W 000°12'0 0.0
2017-Dec-17 11:29N 53°38' W 000°12'0 0.0
2017-Dec-17 10:59N 53°38' W 000°12'0 0.0
2017-Dec-17 10:29N 53°38' W 000°12'0 0.0
2017-Dec-17 09:59N 53°38' W 000°12'0 0.0
2017-Dec-17 09:29N 53°38' W 000°12'0 0.0
2017-Dec-17 08:59N 53°38' W 000°12'0 0.0
2017-Dec-17 08:29N 53°38' W 000°12'0 0.0
2017-Dec-17 07:59N 53°38' W 000°12'0 0.0
2017-Dec-17 07:29N 53°38' W 000°12'0 0.0
2017-Dec-17 06:59N 53°38' W 000°12'0 0.0
2017-Dec-17 06:26N 53°38' W 000°12'0 0.0
2017-Dec-17 05:56N 53°38' W 000°12'0 0.0
2017-Dec-17 05:26N 53°38' W 000°12'0 0.0
2017-Dec-17 02:32N 53°38' W 000°12'0 0.0
2017-Dec-17 02:23N 53°38' W 000°12'0 0.0
2017-Dec-17 01:53N 53°38' W 000°12'0 0.0
2017-Dec-17 01:29N 53°38' W 000°12'0 0.0
2017-Dec-17 00:59N 53°38' W 000°12'0 0.0
2017-Dec-17 00:29N 53°38' W 000°12'0 0.0
2017-Dec-16 23:53N 53°38' W 000°12'0 0.0
2017-Dec-16 23:29N 53°38' W 000°12'0 0.0
2017-Dec-16 22:59N 53°38' W 000°12'0 0.0
2017-Dec-16 22:29N 53°38' W 000°12'0 0.0
2017-Dec-16 21:53N 53°38' W 000°12'0 0.0
2017-Dec-16 21:29N 53°38' W 000°12'0 0.0
2017-Dec-16 20:59N 53°38' W 000°12'0 0.0
2017-Dec-16 20:29N 53°38' W 000°12'0 0.0
2017-Dec-16 19:59N 53°38' W 000°12'0 0.0
2017-Dec-16 19:29N 53°38' W 000°12'0 0.0
2017-Dec-16 18:59N 53°38' W 000°12'0 0.9
2017-Dec-16 18:30N 53°38' W 000°11'0 0.5
2017-Dec-16 17:57N 53°38' W 000°11'0 0.8
2017-Dec-16 17:30N 53°38' W 000°11'1 2.1
2017-Dec-16 17:00N 53°38' W 000°09'4 8.3
2017-Dec-16 16:29N 53°36' W 000°02'284 5.6
2017-Dec-14 13:49N 53°52' E 007°57'3 9.2
2017-Dec-14 13:30N 53°51' E 008°02'510.4
2017-Dec-14 13:00N 53°47' E 008°09'611.6
2017-Dec-14 12:30N 53°44' E 008°16'612.1
2017-Dec-14 12:00N 53°40' E 008°24'611.5
2017-Dec-14 11:30N 53°36' E 008°31'510.1
2017-Dec-14 11:00N 53°31' E 008°32'510.9
2017-Dec-14 10:30N 53°26' E 008°30'4 7.5
2017-Dec-14 09:58N 53°21' E 008°30'0 0.0
2017-Dec-14 09:28N 53°21' E 008°30'0 0.0
2017-Dec-14 08:58N 53°21' E 008°30'0 0.0
2017-Dec-14 08:28N 53°21' E 008°30'0 0.0
2017-Dec-14 07:58N 53°21' E 008°30'0 0.0
2017-Dec-14 07:28N 53°21' E 008°30'0 0.0
2017-Dec-14 06:58N 53°21' E 008°30'0 0.0
2017-Dec-14 06:25N 53°21' E 008°30'0 0.0
2017-Dec-14 05:58N 53°21' E 008°30'0 0.0
2017-Dec-14 05:28N 53°21' E 008°30'0 0.0
2017-Dec-14 04:58N 53°21' E 008°30'0 0.0
2017-Dec-14 04:28N 53°21' E 008°30'0 0.0
2017-Dec-14 03:58N 53°21' E 008°30'0 0.0
2017-Dec-14 03:28N 53°21' E 008°30'0 0.0
2017-Dec-14 02:58N 53°21' E 008°30'0 0.0
2017-Dec-14 02:28N 53°21' E 008°30'0 0.0
2017-Dec-14 01:58N 53°21' E 008°30'0 0.0
2017-Dec-14 01:28N 53°21' E 008°30'0 0.0
2017-Dec-14 00:58N 53°21' E 008°30'0 0.0
2017-Dec-14 00:28N 53°21' E 008°30'0 0.0
2017-Dec-13 23:58N 53°21' E 008°30'0 0.1
2017-Dec-13 23:22N 53°21' E 008°30'0 0.0
2017-Dec-13 22:58N 53°21' E 008°30'0 0.0
2017-Dec-13 22:28N 53°21' E 008°30'0 0.0
2017-Dec-13 21:58N 53°21' E 008°30'0 0.0
2017-Dec-13 21:28N 53°21' E 008°30'0 0.0
2017-Dec-13 20:58N 53°21' E 008°30'0 0.0
2017-Dec-13 20:28N 53°21' E 008°30'0 0.0
2017-Dec-13 19:58N 53°21' E 008°30'0 0.0
2017-Dec-13 19:28N 53°21' E 008°30'0 0.0
2017-Dec-13 18:58N 53°21' E 008°30'0 0.0
2017-Dec-13 18:28N 53°21' E 008°30'0 0.0
2017-Dec-13 17:58N 53°21' E 008°30'0 0.0
2017-Dec-13 17:28N 53°21' E 008°30'0 0.0
2017-Dec-13 16:58N 53°21' E 008°30'0 0.0
2017-Dec-13 16:25N 53°21' E 008°30'0 0.0
2017-Dec-13 15:58N 53°21' E 008°30'0 0.0
2017-Dec-13 15:28N 53°21' E 008°30'0 0.0
2017-Dec-13 14:55N 53°21' E 008°30'0 0.0
2017-Dec-13 14:25N 53°21' E 008°30'0 0.0
2017-Dec-13 13:58N 53°21' E 008°30'0 0.0
2017-Dec-13 13:28N 53°21' E 008°30'0 0.0
2017-Dec-13 12:58N 53°21' E 008°30'0 0.0
2017-Dec-13 12:28N 53°21' E 008°30'0 0.0
2017-Dec-13 11:58N 53°21' E 008°30'0 0.2
2017-Dec-13 11:28N 53°21' E 008°30'0 0.2
2017-Dec-13 10:58N 53°21' E 008°30'0 0.0
2017-Dec-13 10:28N 53°21' E 008°30'0 0.0
2017-Dec-13 09:58N 53°21' E 008°30'0 0.0
2017-Dec-13 09:28N 53°21' E 008°30'0 0.0
2017-Dec-13 08:58N 53°21' E 008°30'0 0.0
2017-Dec-13 08:28N 53°21' E 008°30'0 0.0
2017-Dec-13 07:58N 53°21' E 008°30'0 0.0
2017-Dec-13 07:28N 53°21' E 008°30'0 0.0
2017-Dec-13 06:58N 53°21' E 008°30'0 0.0
2017-Dec-13 06:25N 53°21' E 008°30'0 0.0
2017-Dec-13 05:55N 53°21' E 008°30'0 0.0
2017-Dec-13 05:28N 53°21' E 008°30'0 0.0
2017-Dec-13 04:58N 53°21' E 008°30'0 0.0
2017-Dec-13 04:28N 53°21' E 008°30'0 0.0
2017-Dec-13 03:58N 53°21' E 008°30'0 0.0
2017-Dec-13 03:28N 53°21' E 008°30'0 0.0
2017-Dec-13 02:58N 53°21' E 008°30'0 0.1
2017-Dec-13 02:28N 53°21' E 008°30'0 0.1
2017-Dec-13 01:58N 53°21' E 008°30'0 0.0
2017-Dec-13 01:25N 53°21' E 008°30'0 0.0
2017-Dec-13 00:55N 53°21' E 008°30'0 0.0
2017-Dec-13 00:28N 53°21' E 008°30'0 0.0
2017-Dec-12 23:58N 53°21' E 008°30'0 0.0
2017-Dec-12 23:28N 53°21' E 008°30'0 0.0
2017-Dec-12 22:58N 53°21' E 008°30'0 0.0
2017-Dec-12 22:28N 53°21' E 008°30'0 0.0
2017-Dec-12 21:58N 53°21' E 008°30'0 0.0
2017-Dec-12 21:25N 53°21' E 008°30'0 0.0
2017-Dec-12 20:58N 53°21' E 008°30'0 0.0
2017-Dec-12 20:28N 53°21' E 008°30'0 0.0
2017-Dec-12 19:58N 53°21' E 008°30'0 0.0
2017-Dec-12 19:28N 53°21' E 008°30'0 0.0
2017-Dec-12 18:58N 53°21' E 008°30'0 0.0
2017-Dec-12 18:28N 53°21' E 008°30'0 0.0
2017-Dec-12 17:58N 53°21' E 008°30'0 0.0
2017-Dec-12 17:28N 53°21' E 008°30'0 0.0
2017-Dec-12 16:55N 53°21' E 008°30'0 0.0
2017-Dec-12 16:28N 53°21' E 008°30'0 0.0
2017-Dec-12 15:58N 53°21' E 008°30'0 0.0
2017-Dec-12 15:28N 53°21' E 008°30'0 0.0
2017-Dec-12 14:58N 53°21' E 008°30'0 0.0
2017-Dec-12 14:28N 53°21' E 008°30'0 0.0
2017-Dec-12 13:55N 53°21' E 008°30'0 0.0
2017-Dec-12 13:25N 53°21' E 008°30'0 0.0
2017-Dec-12 12:58N 53°21' E 008°30'0 0.0
2017-Dec-12 12:19N 53°21' E 008°30'0 0.0
2017-Dec-12 11:58N 53°21' E 008°30'0 0.0
2017-Dec-12 11:28N 53°21' E 008°30'0 0.0
2017-Dec-12 10:58N 53°21' E 008°30'0 0.0
2017-Dec-12 10:28N 53°21' E 008°30'0 0.0
2017-Dec-12 09:58N 53°21' E 008°30'0 0.0
2017-Dec-12 09:28N 53°21' E 008°30'0 0.0
2017-Dec-12 08:58N 53°21' E 008°30'0 0.0
2017-Dec-12 08:28N 53°21' E 008°30'0 0.0
2017-Dec-12 07:55N 53°21' E 008°30'0 0.0
2017-Dec-12 07:28N 53°21' E 008°30'0 0.0
2017-Dec-12 06:55N 53°21' E 008°30'0 0.0
2017-Dec-12 06:28N 53°21' E 008°30'0 0.0
2017-Dec-12 05:58N 53°21' E 008°30'0 0.0
2017-Dec-12 05:28N 53°21' E 008°30'0 0.0
2017-Dec-12 04:43N 53°21' E 008°30'0 0.0
2017-Dec-12 04:28N 53°21' E 008°30'0 0.0
2017-Dec-12 03:58N 53°21' E 008°30'0 0.0
2017-Dec-12 03:28N 53°21' E 008°30'0 0.0
2017-Dec-12 02:58N 53°21' E 008°30'0 0.0
2017-Dec-12 02:28N 53°21' E 008°30'0 0.0
2017-Dec-12 01:58N 53°21' E 008°30'0 0.0
2017-Dec-12 01:30N 53°21' E 008°30'2 4.9
2017-Dec-12 01:00N 53°24' E 008°30'5 9.1
2017-Dec-12 00:30N 53°28' E 008°30'3 6.1
2017-Dec-11 23:59N 53°31' E 008°33'0 0.0
2017-Dec-11 23:29N 53°31' E 008°33'0 0.0
2017-Dec-11 22:59N 53°31' E 008°33'0 0.0
2017-Dec-11 22:29N 53°31' E 008°33'0 0.0
2017-Dec-11 21:59N 53°31' E 008°33'0 0.0
2017-Dec-11 21:29N 53°31' E 008°33'0 0.0
2017-Dec-11 20:56N 53°31' E 008°33'0 0.0
2017-Dec-11 20:29N 53°31' E 008°33'0 0.0
2017-Dec-11 19:59N 53°31' E 008°33'0 0.2
2017-Dec-11 19:29N 53°31' E 008°33'0 0.1
2017-Dec-11 18:59N 53°31' E 008°33'0 0.0
2017-Dec-11 18:26N 53°31' E 008°33'0 0.0
2017-Dec-11 17:59N 53°31' E 008°33'0 0.0
2017-Dec-11 17:29N 53°31' E 008°33'0 0.0
2017-Dec-11 16:59N 53°31' E 008°33'0 0.0
2017-Dec-11 16:29N 53°31' E 008°33'0 0.0
2017-Dec-11 15:59N 53°31' E 008°33'0 0.0
2017-Dec-11 15:29N 53°31' E 008°33'0 0.0
2017-Dec-11 14:59N 53°31' E 008°33'0 0.0
2017-Dec-11 14:29N 53°31' E 008°33'0 0.1
2017-Dec-11 13:59N 53°31' E 008°33'0 0.0
2017-Dec-11 13:29N 53°31' E 008°33'0 0.2
2017-Dec-11 12:59N 53°31' E 008°33'0 0.0
2017-Dec-11 12:26N 53°31' E 008°33'0 0.0
2017-Dec-11 11:59N 53°31' E 008°33'0 0.0
2017-Dec-11 11:29N 53°31' E 008°33'0 0.0
2017-Dec-11 10:59N 53°31' E 008°33'0 0.0
2017-Dec-11 10:29N 53°31' E 008°33'0 0.0
2017-Dec-11 09:59N 53°31' E 008°33'0 0.0
2017-Dec-11 09:29N 53°31' E 008°33'0 0.0
2017-Dec-11 08:59N 53°31' E 008°33'0 0.0
2017-Dec-11 08:29N 53°31' E 008°33'0 0.0
2017-Dec-11 07:59N 53°31' E 008°33'0 0.0
2017-Dec-11 07:29N 53°31' E 008°33'0 0.0
2017-Dec-11 06:59N 53°31' E 008°33'0 0.0
2017-Dec-11 06:29N 53°31' E 008°33'0 0.2
2017-Dec-11 05:59N 53°31' E 008°33'0 0.1
2017-Dec-11 05:29N 53°31' E 008°33'0 0.0
2017-Dec-11 04:59N 53°31' E 008°33'0 0.0
2017-Dec-11 04:23N 53°31' E 008°33'0 0.0
2017-Dec-11 03:59N 53°31' E 008°33'0 0.0
2017-Dec-11 03:29N 53°31' E 008°33'0 0.0
2017-Dec-11 02:59N 53°31' E 008°33'0 0.0
2017-Dec-11 02:29N 53°31' E 008°33'0 0.0
2017-Dec-11 01:59N 53°31' E 008°33'0 0.0
2017-Dec-11 01:29N 53°31' E 008°33'0 0.0
2017-Dec-11 00:59N 53°31' E 008°33'0 0.1
2017-Dec-11 00:29N 53°31' E 008°33'0 0.0
2017-Dec-10 23:59N 53°31' E 008°33'0 0.2
2017-Dec-10 23:29N 53°31' E 008°33'0 0.0
2017-Dec-10 22:59N 53°31' E 008°33'0 0.0
2017-Dec-10 22:29N 53°31' E 008°33'0 0.0
2017-Dec-10 21:59N 53°31' E 008°33'0 0.0
2017-Dec-10 21:29N 53°31' E 008°33'0 0.0
2017-Dec-10 20:59N 53°31' E 008°33'0 0.0
2017-Dec-10 20:29N 53°31' E 008°33'0 0.0
2017-Dec-10 19:59N 53°31' E 008°33'0 0.0
2017-Dec-10 19:29N 53°31' E 008°33'0 0.1
2017-Dec-10 18:59N 53°31' E 008°33'0 0.2
2017-Dec-10 18:29N 53°31' E 008°33'0 0.1
2017-Dec-10 17:59N 53°31' E 008°33'0 0.0
2017-Dec-10 17:29N 53°31' E 008°33'0 0.0
2017-Dec-10 16:59N 53°31' E 008°33'0 0.0
2017-Dec-10 16:29N 53°31' E 008°33'0 0.0
2017-Dec-10 15:59N 53°31' E 008°33'0 0.0
2017-Dec-10 15:29N 53°31' E 008°33'0 0.0
2017-Dec-10 14:59N 53°31' E 008°33'0 0.0
2017-Dec-10 14:29N 53°31' E 008°33'0 0.0
2017-Dec-10 13:59N 53°31' E 008°33'0 0.0
2017-Dec-10 13:29N 53°31' E 008°33'0 0.1
2017-Dec-10 12:53N 53°31' E 008°33'0 0.1
2017-Dec-10 12:29N 53°31' E 008°33'0 0.5
2017-Dec-10 12:00N 53°31' E 008°33'3 6.7
2017-Dec-10 11:30N 53°34' E 008°32'4 8.0
2017-Dec-10 11:00N 53°38' E 008°28'4 8.2
2017-Dec-10 10:30N 53°40' E 008°23'4 7.4
2017-Dec-10 10:00N 53°43' E 008°18'4 7.7
2017-Dec-10 09:30N 53°45' E 008°12'4 7.3
2017-Dec-10 09:00N 53°48' E 008°08'4 7.5
2017-Dec-10 08:28N 53°50' E 008°03'4 8.8
2017-Dec-10 08:00N 53°52' E 007°57'95 6.5
2017-Dec-09 17:31N 53°32' E 005°20'1 8.1
2017-Dec-09 17:23N 53°32' E 005°18'3 8.0
2017-Dec-09 16:59N 53°31' E 005°13'4 8.3
2017-Dec-09 16:31N 53°30' E 005°07'4 8.2
2017-Dec-09 16:00N 53°28' E 005°00'4 8.1
2017-Dec-09 15:30N 53°27' E 004°54'4 8.3
2017-Dec-09 14:59N 53°25' E 004°47'31 6.9
2017-Dec-09 10:25N 52°59' E 004°20'3 7.9
2017-Dec-09 10:00N 52°56' E 004°18'4 7.7
2017-Dec-09 09:30N 52°52' E 004°15'5 9.1
2017-Dec-09 09:00N 52°48' E 004°11'5 9.2
2017-Dec-09 08:30N 52°45' E 004°05'5 9.6
2017-Dec-09 08:00N 52°46' E 003°58'5 9.4
2017-Dec-09 07:29N 52°48' E 003°50'5 9.4
2017-Dec-09 06:59N 52°49' E 003°43'5 9.7
2017-Dec-09 06:30N 52°51' E 003°35'133 9.4
2017-Dec-08 16:23N 53°34' E 000°06'3 8.8
2017-Dec-08 16:00N 53°35' E 000°01'610.7
2017-Dec-08 15:29N 53°37' W 000°08'2 4.5
2017-Dec-08 14:59N 53°38' W 000°11'0 0.4
2017-Dec-08 14:30N 53°38' W 000°12'0 0.2
2017-Dec-08 14:00N 53°38' W 000°12'0 0.0
2017-Dec-08 13:30N 53°38' W 000°12'0 0.0
2017-Dec-08 13:00N 53°38' W 000°12'  
Track history (hours):
 
Tides and Currents Weather Stations Pressure Air Temp Water Temp Dewpoint Dewpoint Depression Visibility Wind Speed Wind Dir Waves Ship Positions

Marschenland

Last reported at 2017-Dec-18 12:30 UTC. Time now 2017-Dec-18 12:51 UTC.
Position N 51°27' E 003°59'.

Length 75 m; draft 3.4 m.

Type: Cargo ship. MMSI: 205489000.

Date/timePositionNaut miles runAvg speedWind from/ knotsBaromVisibWave heightAir tempDewpointWater temp
2017-Dec-18 12:30N 51°27' E 003°59'5 9.2
2017-Dec-18 12:00N 51°23' E 003°54'5 9.7
2017-Dec-18 11:31N 51°23' E 003°46'611.2
2017-Dec-18 11:00N 51°26' E 003°39'710.1
2017-Dec-18 10:21N 51°29' E 003°29'511.2
2017-Dec-18 09:56N 51°33' E 003°25'510.9
2017-Dec-18 09:30N 51°38' E 003°22'510.8
2017-Dec-18 09:00N 51°42' E 003°18'165 8.7
2017-Dec-17 14:05N 53°35' W 000°01'1 8.2
2017-Dec-17 14:00N 53°35' W 000°02'4 8.5
2017-Dec-17 13:30N 53°37' W 000°08'2 3.5
2017-Dec-17 12:57N 53°38' W 000°11'0 0.2
2017-Dec-17 12:29N 53°38' W 000°12'0 0.7
2017-Dec-17 11:59N 53°38' W 000°12'0 0.0
2017-Dec-17 11:29N 53°38' W 000°12'0 0.0
2017-Dec-17 10:59N 53°38' W 000°12'0 0.0
2017-Dec-17 10:29N 53°38' W 000°12'0 0.0
2017-Dec-17 09:59N 53°38' W 000°12'0 0.0
2017-Dec-17 09:29N 53°38' W 000°12'0 0.0
2017-Dec-17 08:59N 53°38' W 000°12'0 0.0
2017-Dec-17 08:29N 53°38' W 000°12'0 0.0
2017-Dec-17 07:59N 53°38' W 000°12'0 0.0
2017-Dec-17 07:29N 53°38' W 000°12'0 0.0
2017-Dec-17 06:59N 53°38' W 000°12'0 0.0
2017-Dec-17 06:26N 53°38' W 000°12'0 0.0
2017-Dec-17 05:56N 53°38' W 000°12'0 0.0
2017-Dec-17 05:26N 53°38' W 000°12'0 0.0
2017-Dec-17 02:32N 53°38' W 000°12'0 0.0
2017-Dec-17 02:23N 53°38' W 000°12'0 0.0
2017-Dec-17 01:53N 53°38' W 000°12'0 0.0
2017-Dec-17 01:29N 53°38' W 000°12'0 0.0
2017-Dec-17 00:59N 53°38' W 000°12'0 0.0
2017-Dec-17 00:29N 53°38' W 000°12'0 0.0
2017-Dec-16 23:53N 53°38' W 000°12'0 0.0
2017-Dec-16 23:29N 53°38' W 000°12'0 0.0
2017-Dec-16 22:59N 53°38' W 000°12'0 0.0
2017-Dec-16 22:29N 53°38' W 000°12'0 0.0
2017-Dec-16 21:53N 53°38' W 000°12'0 0.0
2017-Dec-16 21:29N 53°38' W 000°12'0 0.0
2017-Dec-16 20:59N 53°38' W 000°12'0 0.0
2017-Dec-16 20:29N 53°38' W 000°12'0 0.0
2017-Dec-16 19:59N 53°38' W 000°12'0 0.0
2017-Dec-16 19:29N 53°38' W 000°12'0 0.0
2017-Dec-16 18:59N 53°38' W 000°12'0 0.9
2017-Dec-16 18:30N 53°38' W 000°11'0 0.5
2017-Dec-16 17:57N 53°38' W 000°11'0 0.8
2017-Dec-16 17:30N 53°38' W 000°11'1 2.1
2017-Dec-16 17:00N 53°38' W 000°09'4 8.3
2017-Dec-16 16:29N 53°36' W 000°02'284 5.6
2017-Dec-14 13:49N 53°52' E 007°57'3 9.2
2017-Dec-14 13:30N 53°51' E 008°02'510.4
2017-Dec-14 13:00N 53°47' E 008°09'611.6
2017-Dec-14 12:30N 53°44' E 008°16'612.1
2017-Dec-14 12:00N 53°40' E 008°24'611.5
2017-Dec-14 11:30N 53°36' E 008°31'510.1
2017-Dec-14 11:00N 53°31' E 008°32'510.9
2017-Dec-14 10:30N 53°26' E 008°30'4 7.5
2017-Dec-14 09:58N 53°21' E 008°30'0 0.0
2017-Dec-14 09:28N 53°21' E 008°30'0 0.0
2017-Dec-14 08:58N 53°21' E 008°30'0 0.0
2017-Dec-14 08:28N 53°21' E 008°30'0 0.0
2017-Dec-14 07:58N 53°21' E 008°30'0 0.0
2017-Dec-14 07:28N 53°21' E 008°30'0 0.0
2017-Dec-14 06:58N 53°21' E 008°30'0 0.0
2017-Dec-14 06:25N 53°21' E 008°30'0 0.0
2017-Dec-14 05:58N 53°21' E 008°30'0 0.0
2017-Dec-14 05:28N 53°21' E 008°30'0 0.0
2017-Dec-14 04:58N 53°21' E 008°30'0 0.0
2017-Dec-14 04:28N 53°21' E 008°30'0 0.0
2017-Dec-14 03:58N 53°21' E 008°30'0 0.0
2017-Dec-14 03:28N 53°21' E 008°30'0 0.0
2017-Dec-14 02:58N 53°21' E 008°30'0 0.0
2017-Dec-14 02:28N 53°21' E 008°30'0 0.0
2017-Dec-14 01:58N 53°21' E 008°30'0 0.0
2017-Dec-14 01:28N 53°21' E 008°30'0 0.0
2017-Dec-14 00:58N 53°21' E 008°30'0 0.0
2017-Dec-14 00:28N 53°21' E 008°30'0 0.0
2017-Dec-13 23:58N 53°21' E 008°30'0 0.1
2017-Dec-13 23:22N 53°21' E 008°30'0 0.0
2017-Dec-13 22:58N 53°21' E 008°30'0 0.0
2017-Dec-13 22:28N 53°21' E 008°30'0 0.0
2017-Dec-13 21:58N 53°21' E 008°30'0 0.0
2017-Dec-13 21:28N 53°21' E 008°30'0 0.0
2017-Dec-13 20:58N 53°21' E 008°30'0 0.0
2017-Dec-13 20:28N 53°21' E 008°30'0 0.0
2017-Dec-13 19:58N 53°21' E 008°30'0 0.0
2017-Dec-13 19:28N 53°21' E 008°30'0 0.0
2017-Dec-13 18:58N 53°21' E 008°30'0 0.0
2017-Dec-13 18:28N 53°21' E 008°30'0 0.0
2017-Dec-13 17:58N 53°21' E 008°30'0 0.0
2017-Dec-13 17:28N 53°21' E 008°30'0 0.0
2017-Dec-13 16:58N 53°21' E 008°30'0 0.0
2017-Dec-13 16:25N 53°21' E 008°30'0 0.0
2017-Dec-13 15:58N 53°21' E 008°30'0 0.0
2017-Dec-13 15:28N 53°21' E 008°30'0 0.0
2017-Dec-13 14:55N 53°21' E 008°30'0 0.0
2017-Dec-13 14:25N 53°21' E 008°30'0 0.0
2017-Dec-13 13:58N 53°21' E 008°30'0 0.0
2017-Dec-13 13:28N 53°21' E 008°30'0 0.0
2017-Dec-13 12:58N 53°21' E 008°30'0 0.0
2017-Dec-13 12:28N 53°21' E 008°30'0 0.0
2017-Dec-13 11:58N 53°21' E 008°30'0 0.2
2017-Dec-13 11:28N 53°21' E 008°30'0 0.2
2017-Dec-13 10:58N 53°21' E 008°30'0 0.0
2017-Dec-13 10:28N 53°21' E 008°30'0 0.0
2017-Dec-13 09:58N 53°21' E 008°30'0 0.0
2017-Dec-13 09:28N 53°21' E 008°30'0 0.0
2017-Dec-13 08:58N 53°21' E 008°30'0 0.0
2017-Dec-13 08:28N 53°21' E 008°30'0 0.0
2017-Dec-13 07:58N 53°21' E 008°30'0 0.0
2017-Dec-13 07:28N 53°21' E 008°30'0 0.0
2017-Dec-13 06:58N 53°21' E 008°30'0 0.0
2017-Dec-13 06:25N 53°21' E 008°30'0 0.0
2017-Dec-13 05:55N 53°21' E 008°30'0 0.0
2017-Dec-13 05:28N 53°21' E 008°30'0 0.0
2017-Dec-13 04:58N 53°21' E 008°30'0 0.0
2017-Dec-13 04:28N 53°21' E 008°30'0 0.0
2017-Dec-13 03:58N 53°21' E 008°30'0 0.0
2017-Dec-13 03:28N 53°21' E 008°30'0 0.0
2017-Dec-13 02:58N 53°21' E 008°30'0 0.1
2017-Dec-13 02:28N 53°21' E 008°30'0 0.1
2017-Dec-13 01:58N 53°21' E 008°30'0 0.0
2017-Dec-13 01:25N 53°21' E 008°30'0 0.0
2017-Dec-13 00:55N 53°21' E 008°30'0 0.0
2017-Dec-13 00:28N 53°21' E 008°30'0 0.0
2017-Dec-12 23:58N 53°21' E 008°30'0 0.0
2017-Dec-12 23:28N 53°21' E 008°30'0 0.0
2017-Dec-12 22:58N 53°21' E 008°30'0 0.0
2017-Dec-12 22:28N 53°21' E 008°30'0 0.0
2017-Dec-12 21:58N 53°21' E 008°30'0 0.0
2017-Dec-12 21:25N 53°21' E 008°30'0 0.0
2017-Dec-12 20:58N 53°21' E 008°30'0 0.0
2017-Dec-12 20:28N 53°21' E 008°30'0 0.0
2017-Dec-12 19:58N 53°21' E 008°30'0 0.0
2017-Dec-12 19:28N 53°21' E 008°30'0 0.0
2017-Dec-12 18:58N 53°21' E 008°30'0 0.0
2017-Dec-12 18:28N 53°21' E 008°30'0 0.0
2017-Dec-12 17:58N 53°21' E 008°30'0 0.0
2017-Dec-12 17:28N 53°21' E 008°30'0 0.0
2017-Dec-12 16:55N 53°21' E 008°30'0 0.0
2017-Dec-12 16:28N 53°21' E 008°30'0 0.0
2017-Dec-12 15:58N 53°21' E 008°30'0 0.0
2017-Dec-12 15:28N 53°21' E 008°30'0 0.0
2017-Dec-12 14:58N 53°21' E 008°30'0 0.0
2017-Dec-12 14:28N 53°21' E 008°30'0 0.0
2017-Dec-12 13:55N 53°21' E 008°30'0 0.0
2017-Dec-12 13:25N 53°21' E 008°30'0 0.0
2017-Dec-12 12:58N 53°21' E 008°30'0 0.0
2017-Dec-12 12:19N 53°21' E 008°30'0 0.0
2017-Dec-12 11:58N 53°21' E 008°30'0 0.0
2017-Dec-12 11:28N 53°21' E 008°30'0 0.0
2017-Dec-12 10:58N 53°21' E 008°30'0 0.0
2017-Dec-12 10:28N 53°21' E 008°30'0 0.0
2017-Dec-12 09:58N 53°21' E 008°30'0 0.0
2017-Dec-12 09:28N 53°21' E 008°30'0 0.0
2017-Dec-12 08:58N 53°21' E 008°30'0 0.0
2017-Dec-12 08:28N 53°21' E 008°30'0 0.0
2017-Dec-12 07:55N 53°21' E 008°30'0 0.0
2017-Dec-12 07:28N 53°21' E 008°30'0 0.0
2017-Dec-12 06:55N 53°21' E 008°30'0 0.0
2017-Dec-12 06:28N 53°21' E 008°30'0 0.0
2017-Dec-12 05:58N 53°21' E 008°30'0 0.0
2017-Dec-12 05:28N 53°21' E 008°30'0 0.0
2017-Dec-12 04:43N 53°21' E 008°30'0 0.0
2017-Dec-12 04:28N 53°21' E 008°30'0 0.0
2017-Dec-12 03:58N 53°21' E 008°30'0 0.0
2017-Dec-12 03:28N 53°21' E 008°30'0 0.0
2017-Dec-12 02:58N 53°21' E 008°30'0 0.0
2017-Dec-12 02:28N 53°21' E 008°30'0 0.0
2017-Dec-12 01:58N 53°21' E 008°30'0 0.0
2017-Dec-12 01:30N 53°21' E 008°30'2 4.9
2017-Dec-12 01:00N 53°24' E 008°30'5 9.1
2017-Dec-12 00:30N 53°28' E 008°30'3 6.1
2017-Dec-11 23:59N 53°31' E 008°33'0 0.0
2017-Dec-11 23:29N 53°31' E 008°33'0 0.0
2017-Dec-11 22:59N 53°31' E 008°33'0 0.0
2017-Dec-11 22:29N 53°31' E 008°33'0 0.0
2017-Dec-11 21:59N 53°31' E 008°33'0 0.0
2017-Dec-11 21:29N 53°31' E 008°33'0 0.0
2017-Dec-11 20:56N 53°31' E 008°33'0 0.0
2017-Dec-11 20:29N 53°31' E 008°33'0 0.0
2017-Dec-11 19:59N 53°31' E 008°33'0 0.2
2017-Dec-11 19:29N 53°31' E 008°33'0 0.1
2017-Dec-11 18:59N 53°31' E 008°33'0 0.0
2017-Dec-11 18:26N 53°31' E 008°33'0 0.0
2017-Dec-11 17:59N 53°31' E 008°33'0 0.0
2017-Dec-11 17:29N 53°31' E 008°33'0 0.0
2017-Dec-11 16:59N 53°31' E 008°33'0 0.0
2017-Dec-11 16:29N 53°31' E 008°33'0 0.0
2017-Dec-11 15:59N 53°31' E 008°33'0 0.0
2017-Dec-11 15:29N 53°31' E 008°33'0 0.0
2017-Dec-11 14:59N 53°31' E 008°33'0 0.0
2017-Dec-11 14:29N 53°31' E 008°33'0 0.1
2017-Dec-11 13:59N 53°31' E 008°33'0 0.0
2017-Dec-11 13:29N 53°31' E 008°33'0 0.2
2017-Dec-11 12:59N 53°31' E 008°33'0 0.0
2017-Dec-11 12:26N 53°31' E 008°33'0 0.0
2017-Dec-11 11:59N 53°31' E 008°33'0 0.0
2017-Dec-11 11:29N 53°31' E 008°33'0 0.0
2017-Dec-11 10:59N 53°31' E 008°33'0 0.0
2017-Dec-11 10:29N 53°31' E 008°33'0 0.0
2017-Dec-11 09:59N 53°31' E 008°33'0 0.0
2017-Dec-11 09:29N 53°31' E 008°33'0 0.0
2017-Dec-11 08:59N 53°31' E 008°33'0 0.0
2017-Dec-11 08:29N 53°31' E 008°33'0 0.0
2017-Dec-11 07:59N 53°31' E 008°33'0 0.0
2017-Dec-11 07:29N 53°31' E 008°33'0 0.0
2017-Dec-11 06:59N 53°31' E 008°33'0 0.0
2017-Dec-11 06:29N 53°31' E 008°33'0 0.2
2017-Dec-11 05:59N 53°31' E 008°33'0 0.1
2017-Dec-11 05:29N 53°31' E 008°33'0 0.0
2017-Dec-11 04:59N 53°31' E 008°33'0 0.0
2017-Dec-11 04:23N 53°31' E 008°33'0 0.0
2017-Dec-11 03:59N 53°31' E 008°33'0 0.0
2017-Dec-11 03:29N 53°31' E 008°33'0 0.0
2017-Dec-11 02:59N 53°31' E 008°33'0 0.0
2017-Dec-11 02:29N 53°31' E 008°33'0 0.0
2017-Dec-11 01:59N 53°31' E 008°33'0 0.0
2017-Dec-11 01:29N 53°31' E 008°33'0 0.0
2017-Dec-11 00:59N 53°31' E 008°33'0 0.1
2017-Dec-11 00:29N 53°31' E 008°33'0 0.0
2017-Dec-10 23:59N 53°31' E 008°33'0 0.2
2017-Dec-10 23:29N 53°31' E 008°33'0 0.0
2017-Dec-10 22:59N 53°31' E 008°33'0 0.0
2017-Dec-10 22:29N 53°31' E 008°33'0 0.0
2017-Dec-10 21:59N 53°31' E 008°33'0 0.0
2017-Dec-10 21:29N 53°31' E 008°33'0 0.0
2017-Dec-10 20:59N 53°31' E 008°33'0 0.0
2017-Dec-10 20:29N 53°31' E 008°33'0 0.0
2017-Dec-10 19:59N 53°31' E 008°33'0 0.0
2017-Dec-10 19:29N 53°31' E 008°33'0 0.1
2017-Dec-10 18:59N 53°31' E 008°33'0 0.2
2017-Dec-10 18:29N 53°31' E 008°33'0 0.1
2017-Dec-10 17:59N 53°31' E 008°33'0 0.0
2017-Dec-10 17:29N 53°31' E 008°33'0 0.0
2017-Dec-10 16:59N 53°31' E 008°33'0 0.0
2017-Dec-10 16:29N 53°31' E 008°33'0 0.0
2017-Dec-10 15:59N 53°31' E 008°33'0 0.0
2017-Dec-10 15:29N 53°31' E 008°33'0 0.0
2017-Dec-10 14:59N 53°31' E 008°33'0 0.0
2017-Dec-10 14:29N 53°31' E 008°33'0 0.0
2017-Dec-10 13:59N 53°31' E 008°33'0 0.0
2017-Dec-10 13:29N 53°31' E 008°33'0 0.1
2017-Dec-10 12:53N 53°31' E 008°33'0 0.1
2017-Dec-10 12:29N 53°31' E 008°33'0 0.5
2017-Dec-10 12:00N 53°31' E 008°33'3 6.7
2017-Dec-10 11:30N 53°34' E 008°32'4 8.0
2017-Dec-10 11:00N 53°38' E 008°28'4 8.2
2017-Dec-10 10:30N 53°40' E 008°23'4 7.4
2017-Dec-10 10:00N 53°43' E 008°18'4 7.7
2017-Dec-10 09:30N 53°45' E 008°12'4 7.3
2017-Dec-10 09:00N 53°48' E 008°08'4 7.5
2017-Dec-10 08:28N 53°50' E 008°03'4 8.8
2017-Dec-10 08:00N 53°52' E 007°57'95 6.5
2017-Dec-09 17:31N 53°32' E 005°20'1 8.1
2017-Dec-09 17:23N 53°32' E 005°18'3 8.0
2017-Dec-09 16:59N 53°31' E 005°13'4 8.3
2017-Dec-09 16:31N 53°30' E 005°07'4 8.2
2017-Dec-09 16:00N 53°28' E 005°00'4 8.1
2017-Dec-09 15:30N 53°27' E 004°54'4 8.3
2017-Dec-09 14:59N 53°25' E 004°47'31 6.9
2017-Dec-09 10:25N 52°59' E 004°20'3 7.9
2017-Dec-09 10:00N 52°56' E 004°18'4 7.7
2017-Dec-09 09:30N 52°52' E 004°15'5 9.1
2017-Dec-09 09:00N 52°48' E 004°11'5 9.2
2017-Dec-09 08:30N 52°45' E 004°05'5 9.6
2017-Dec-09 08:00N 52°46' E 003°58'5 9.4
2017-Dec-09 07:29N 52°48' E 003°50'5 9.4
2017-Dec-09 06:59N 52°49' E 003°43'5 9.7
2017-Dec-09 06:30N 52°51' E 003°35'133 9.4
2017-Dec-08 16:23N 53°34' E 000°06'3 8.8
2017-Dec-08 16:00N 53°35' E 000°01'610.7
2017-Dec-08 15:29N 53°37' W 000°08'2 4.5
2017-Dec-08 14:59N 53°38' W 000°11'0 0.4
2017-Dec-08 14:30N 53°38' W 000°12'0 0.2
2017-Dec-08 14:00N 53°38' W 000°12'0 0.0
2017-Dec-08 13:30N 53°38' W 000°12'0 0.0
2017-Dec-08 13:00N 53°38' W 000°12'  

Dump ship's entire track history